Portada
METAR-TAF:

METAR-TAF

Aeropuertos :

Aeropuerto Les Eplatures

La Chaux-de-Fonds, Suiza

latitud: 47-05-03N, longitud: 006-47-37E, altitud: 1027 m

Observación

El informe se hizo hace 43 minutos, a las 06:50 UTC
Viento 1 kt con dirección variable
Temperatura 0°C
Humedad 86%
Presión 1030 hPa
Visibilidad 10 km o más
sin nubes por debajo de 1500 m y sin presencia de cumulonimbus.

METAR: LSGC 250650Z VRB01KT CAVOK 00/M02 Q1030

Hora: 08:33 (07:33 UTC)

Pronóstico

El informe se hizo hace 2 horas y 8 minutos, a las 05:25 UTC
Pronóstico válido del 25 a las 06 UTC al 25 a las 15 UTC
Viento 2 kt con dirección variable
Visibilidad 10 km o más
sin nubes por debajo de 1500 m y sin presencia de cumulonimbus.

TAF: LSGC 250525Z 2506/2515 VRB02KT CAVOK

Observaciones y pronósticos meteorológicos de más de 4000 aeropuertos (mensajes METAR y TAF).

Los puntos amarillos y rojos representan las estaciones disponibles.

Ponga el ratón en el punto deseado para ver el nombre de la estación.

Haga clic para ver las observaciones y los pronósticos meteorológicos.

Para cambiar el mapa : haga clic en los botones verdes con una cruz de color negro para hacer un zoom, en el botón verde con un guión para alejar o en las flechas verdes para mapas adyacentes.


METAR-TAF: